createdAt,value
2018-04-16T00:01:04.783Z,26.00
2018-04-16T00:03:30.980Z,26.50
2018-04-16T00:05:57.967Z,25.97
2018-04-16T00:08:24.187Z,26.43
2018-04-16T00:10:50.423Z,26.03
2018-04-16T00:13:16.627Z,25.83
2018-04-16T00:15:43.578Z,25.67
2018-04-16T00:18:09.775Z,27.37
2018-04-16T00:20:36.774Z,26.73
2018-04-16T00:23:02.986Z,25.73
2018-04-16T00:25:29.203Z,25.40
2018-04-16T00:27:56.139Z,25.10
2018-04-16T00:30:23.123Z,26.40
2018-04-16T00:32:55.530Z,26.37
2018-04-16T00:35:27.925Z,26.90
2018-04-16T00:38:00.919Z,27.00
2018-04-16T00:40:34.058Z,25.30
2018-04-16T00:43:06.343Z,26.73
2018-04-16T00:45:38.692Z,27.20
2018-04-16T00:48:11.083Z,26.20
2018-04-16T00:50:43.598Z,26.03
2018-04-16T00:53:15.994Z,25.10
2018-04-16T00:55:48.318Z,28.20
2018-04-16T00:58:20.731Z,25.63
2018-04-16T01:00:53.775Z,26.70
2018-04-16T01:03:26.273Z,27.03
2018-04-16T01:05:58.911Z,27.77
2018-04-16T01:08:31.552Z,27.40
2018-04-16T01:11:04.501Z,28.63
2018-04-16T01:13:37.007Z,28.07
2018-04-16T01:16:10.143Z,25.97
2018-04-16T01:21:46.339Z,27.23
2018-04-16T01:24:18.655Z,25.77
2018-04-16T01:26:51.790Z,26.93
2018-04-16T01:32:24.855Z,27.13
2018-04-16T01:34:57.944Z,26.73
2018-04-16T01:37:31.003Z,29.40
2018-04-16T01:40:03.306Z,27.80
2018-04-16T01:42:35.596Z,29.27
2018-04-16T01:45:08.031Z,28.53
2018-04-16T01:47:40.374Z,30.40
2018-04-16T01:50:12.651Z,28.73
2018-04-16T01:52:44.939Z,28.40
2018-04-16T01:55:17.283Z,28.90
2018-04-16T01:57:49.504Z,27.60
2018-04-16T02:00:21.866Z,29.77
2018-04-16T02:02:54.266Z,27.77
2018-04-16T02:05:27.380Z,26.67
2018-04-16T02:07:59.798Z,27.83
2018-04-16T02:10:32.290Z,25.57
2018-04-16T02:13:04.631Z,26.23
2018-04-16T02:15:37.121Z,26.00
2018-04-16T02:18:10.303Z,25.10
2018-04-16T02:20:42.682Z,24.93
2018-04-16T02:23:14.995Z,23.67
2018-04-16T02:25:48.043Z,22.50
2018-04-16T02:28:20.503Z,23.60
2018-04-16T02:30:52.899Z,23.73
2018-04-16T02:33:25.241Z,27.37
2018-04-16T02:35:57.529Z,25.50
2018-04-16T02:38:29.859Z,25.00
2018-04-16T02:41:02.291Z,28.40
2018-04-16T02:43:34.571Z,25.80
2018-04-16T02:46:08.432Z,24.97
2018-04-16T02:48:40.822Z,25.43
2018-04-16T02:51:13.226Z,27.60
2018-04-16T02:53:45.478Z,27.63
2018-04-16T02:56:17.852Z,28.40
2018-04-16T03:01:50.795Z,25.00
2018-04-16T03:04:23.963Z,25.47
2018-04-16T03:06:56.447Z,24.57
2018-04-16T03:09:28.702Z,23.63
2018-04-16T03:12:01.095Z,26.00
2018-04-16T03:14:33.431Z,22.70
2018-04-16T03:17:05.863Z,23.57
2018-04-16T03:19:38.927Z,24.27
2018-04-16T03:22:11.308Z,24.20
2018-04-16T03:24:43.609Z,26.20
2018-04-16T03:27:15.878Z,25.23
2018-04-16T03:29:48.170Z,24.50
2018-04-16T03:32:20.570Z,24.83
2018-04-16T03:34:52.774Z,23.50
2018-04-16T03:37:25.822Z,25.90
2018-04-16T03:39:58.207Z,24.53
2018-04-16T03:42:30.659Z,25.03
2018-04-16T03:45:03.083Z,25.40
2018-04-16T03:47:36.167Z,26.97
2018-04-16T03:50:08.455Z,26.10
2018-04-16T03:52:41.607Z,26.77
2018-04-16T03:58:16.383Z,30.43
2018-04-16T04:00:42.579Z,29.63
2018-04-16T04:03:08.795Z,29.67
2018-04-16T04:05:34.991Z,28.50
2018-04-16T04:08:01.951Z,28.70
2018-04-16T04:10:28.147Z,29.70
2018-04-16T04:12:55.134Z,29.30
2018-04-16T04:15:21.322Z,27.50
2018-04-16T04:17:48.441Z,29.47
2018-04-16T04:20:14.704Z,30.17
2018-04-16T04:22:54.022Z,29.07
2018-04-16T04:25:32.717Z,29.03
2018-04-16T04:28:11.235Z,29.10
2018-04-16T04:30:37.461Z,26.50
2018-04-16T04:33:03.679Z,26.40
2018-04-16T04:35:29.870Z,30.40
2018-04-16T04:37:56.830Z,30.53
2018-04-16T04:40:23.043Z,28.53
2018-04-16T04:42:50.023Z,29.93
2018-04-16T04:45:16.233Z,31.10
2018-04-16T04:47:42.459Z,30.23
2018-04-16T04:50:09.396Z,29.30
2018-04-16T04:52:36.331Z,27.13
2018-04-16T04:55:03.294Z,26.13
2018-04-16T04:57:30.223Z,25.47
2018-04-16T04:59:56.502Z,28.33
2018-04-16T05:02:22.695Z,25.07
2018-04-16T05:04:49.648Z,24.50
2018-04-16T05:07:16.584Z,25.13
2018-04-16T05:09:43.548Z,23.10
2018-04-16T05:12:09.747Z,23.57
2018-04-16T05:14:36.720Z,25.23
2018-04-16T05:17:02.910Z,26.63
2018-04-16T05:19:30.616Z,24.47
2018-04-16T05:21:56.896Z,27.17
2018-04-16T05:24:23.121Z,25.27
2018-04-16T05:26:49.314Z,23.23
2018-04-16T05:29:15.532Z,23.83
2018-04-16T05:31:41.718Z,21.93
2018-04-16T05:34:07.940Z,22.03
2018-04-16T05:36:34.154Z,24.20
2018-04-16T05:39:00.367Z,24.87
2018-04-16T05:41:26.559Z,20.50
2018-04-16T05:43:53.519Z,19.20
2018-04-16T05:46:19.726Z,19.40
2018-04-16T05:48:46.683Z,20.10
2018-04-16T05:51:12.903Z,21.00
2018-04-16T05:53:39.182Z,18.47
2018-04-16T05:56:05.383Z,18.70
2018-04-16T05:58:31.663Z,17.93
2018-04-16T06:00:58.619Z,18.53
2018-04-16T06:03:25.611Z,16.17
2018-04-16T06:05:51.804Z,16.77
2018-04-16T06:08:18.038Z,16.77
2018-04-16T06:10:44.973Z,15.67
2018-04-16T06:13:11.196Z,15.53
2018-04-16T06:15:37.499Z,17.03
2018-04-16T06:18:03.691Z,19.80
2018-04-16T06:20:29.930Z,19.97
2018-04-16T06:22:56.131Z,19.43
2018-04-16T06:25:23.115Z,19.73
2018-04-16T06:27:49.326Z,21.50
2018-04-16T06:30:15.543Z,17.03
2018-04-16T06:32:42.480Z,19.97
2018-04-16T06:35:09.443Z,22.00
2018-04-16T06:37:36.379Z,23.93
2018-04-16T06:40:03.339Z,28.30
2018-04-16T06:42:29.531Z,25.70
2018-04-16T06:44:56.527Z,24.30
2018-04-16T06:47:22.711Z,25.80
2018-04-16T06:49:48.927Z,24.60
2018-04-16T06:52:15.126Z,26.43
2018-04-16T06:54:41.348Z,26.17
2018-04-16T06:57:07.545Z,25.90
2018-04-16T06:59:34.579Z,27.03
2018-04-16T07:02:01.565Z,25.97
2018-04-16T07:04:27.885Z,28.27
2018-04-16T07:06:54.085Z,26.07
2018-04-16T07:09:21.072Z,26.47
2018-04-16T07:11:47.299Z,26.40
2018-04-16T07:14:13.515Z,26.40
2018-04-16T07:16:40.032Z,26.63
2018-04-16T07:19:07.011Z,26.70
2018-04-16T07:21:33.277Z,23.27
2018-04-16T07:23:59.502Z,26.20
2018-04-16T07:26:25.706Z,23.43
2018-04-16T07:28:51.922Z,23.37
2018-04-16T07:31:18.122Z,20.97
2018-04-16T07:33:45.083Z,21.23
2018-04-16T07:36:12.043Z,20.37
2018-04-16T07:38:38.235Z,20.40
2018-04-16T07:41:04.487Z,18.87
2018-04-16T07:43:31.427Z,18.63
2018-04-16T07:45:58.398Z,19.63
2018-04-16T07:48:24.591Z,17.90
2018-04-16T07:50:50.807Z,17.00
2018-04-16T07:53:16.998Z,19.20
2018-04-16T07:55:43.218Z,20.57
2018-04-16T07:58:09.419Z,19.30
2018-04-16T08:00:36.371Z,19.07
2018-04-16T08:03:02.935Z,19.00
2018-04-16T08:05:29.134Z,19.00
2018-04-16T08:07:56.091Z,20.70
2018-04-16T08:10:22.298Z,19.87
2018-04-16T08:12:49.251Z,20.13
2018-04-16T08:15:16.216Z,20.20
2018-04-16T08:17:42.422Z,20.40
2018-04-16T08:20:09.374Z,22.60
2018-04-16T08:22:36.359Z,21.90
2018-04-16T08:25:02.563Z,20.40
2018-04-16T08:27:28.796Z,20.43
2018-04-16T08:29:55.158Z,19.20
2018-04-16T08:32:21.403Z,21.00
2018-04-16T08:34:48.427Z,20.47
2018-04-16T08:37:15.011Z,20.40
2018-04-16T08:39:41.948Z,20.40
2018-04-16T08:42:08.168Z,19.87
2018-04-16T08:44:34.362Z,19.10
2018-04-16T08:47:00.579Z,19.80
2018-04-16T08:49:26.791Z,22.50
2018-04-16T08:51:53.752Z,26.17
2018-04-16T08:54:19.938Z,20.80
2018-04-16T08:56:46.894Z,22.20
2018-04-16T08:59:13.826Z,22.40
2018-04-16T09:01:40.067Z,20.60
2018-04-16T09:04:07.002Z,19.47
2018-04-16T09:06:33.955Z,16.47
2018-04-16T09:09:00.152Z,18.00
2018-04-16T09:11:26.375Z,18.17
2018-04-16T09:13:52.575Z,16.63
2018-04-16T09:16:18.822Z,16.10
2018-04-16T09:18:45.026Z,15.07
2018-04-16T09:21:11.265Z,15.60
2018-04-16T09:23:37.450Z,14.63
2018-04-16T09:26:04.661Z,16.07
2018-04-16T09:28:30.851Z,16.93
2018-04-16T09:30:57.802Z,16.23
2018-04-16T09:33:24.726Z,14.73
2018-04-16T09:35:50.947Z,14.50
2018-04-16T09:38:18.620Z,13.60
2018-04-16T09:40:44.844Z,14.13
2018-04-16T09:43:11.799Z,14.17
2018-04-16T09:45:38.019Z,16.43
2018-04-16T09:48:04.954Z,12.73
2018-04-16T09:50:31.171Z,14.03
2018-04-16T09:52:57.360Z,11.57
2018-04-16T09:55:23.578Z,14.80
2018-04-16T09:57:50.507Z,13.20
2018-04-16T10:00:17.528Z,11.43
2018-04-16T10:02:49.882Z,13.20
2018-04-16T10:05:16.090Z,14.03
2018-04-16T10:07:42.284Z,11.57
2018-04-16T10:10:08.521Z,10.73
2018-04-16T10:12:35.460Z,10.97
2018-04-16T10:15:01.671Z,10.40
2018-04-16T10:17:28.607Z,10.87
2018-04-16T10:19:54.846Z,10.37
2018-04-16T10:22:21.783Z,10.40
2018-04-16T10:24:48.004Z,9.97
2018-04-16T10:27:14.199Z,10.40
2018-04-16T10:29:40.402Z,9.63
2018-04-16T10:32:07.363Z,10.53
2018-04-16T10:34:33.587Z,10.73
2018-04-16T10:37:00.538Z,10.53
2018-04-16T10:39:26.736Z,9.77
2018-04-16T10:41:52.951Z,8.90
2018-04-16T10:44:19.135Z,9.50
2018-04-16T10:46:45.352Z,9.00
2018-04-16T10:49:11.538Z,8.90
2018-04-16T10:51:37.907Z,9.60
2018-04-16T10:54:04.839Z,9.10
2018-04-16T10:56:31.794Z,8.77
2018-04-16T10:58:58.731Z,8.30
2018-04-16T11:01:24.974Z,7.63
2018-04-16T11:03:51.907Z,8.80
2018-04-16T11:06:18.863Z,9.17
2018-04-16T11:08:45.803Z,9.40
2018-04-16T11:11:12.763Z,9.70
2018-04-16T11:13:39.739Z,9.50
2018-04-16T11:16:05.955Z,9.47
2018-04-16T11:18:32.139Z,9.40
2018-04-16T11:20:58.379Z,8.50
2018-04-16T11:23:25.391Z,9.90
2018-04-16T11:25:52.391Z,9.07
2018-04-16T11:28:18.622Z,8.90
2018-04-16T11:30:45.422Z,8.40
2018-04-16T11:33:12.399Z,8.60
2018-04-16T11:35:39.334Z,9.67
2018-04-16T11:38:05.567Z,9.10
2018-04-16T11:40:32.539Z,7.90
2018-04-16T11:42:58.727Z,8.80
2018-04-16T11:45:24.988Z,9.17
2018-04-16T11:47:51.211Z,9.60
2018-04-16T11:50:18.166Z,10.60
2018-04-16T11:52:45.142Z,9.37
2018-04-16T11:55:11.359Z,9.30
2018-04-16T11:57:37.590Z,9.97
2018-04-16T12:00:03.803Z,8.50
2018-04-16T12:02:30.023Z,9.97
2018-04-16T12:04:56.968Z,10.17
2018-04-16T12:07:30.320Z,9.20
2018-04-16T12:09:56.515Z,9.20
2018-04-16T12:12:22.731Z,8.70
2018-04-16T12:14:48.922Z,8.50
2018-04-16T12:17:15.136Z,8.30
2018-04-16T12:19:41.351Z,8.80
2018-04-16T12:22:07.568Z,9.00
2018-04-16T12:24:33.758Z,7.60
2018-04-16T12:27:00.710Z,7.70
2018-04-16T12:29:27.643Z,7.23
2018-04-16T12:31:54.600Z,5.73
2018-04-16T12:34:21.539Z,5.90
2018-04-16T12:36:48.501Z,6.20
2018-04-16T12:39:14.699Z,7.20
2018-04-16T12:41:40.917Z,6.00
2018-04-16T12:44:07.574Z,5.40
2018-04-16T12:46:34.534Z,5.77
2018-04-16T12:49:01.475Z,4.70
2018-04-16T12:51:28.438Z,4.90
2018-04-16T12:53:54.633Z,5.10
2018-04-16T12:56:20.850Z,5.67
2018-04-16T12:58:47.039Z,5.00
2018-04-16T13:01:13.279Z,4.80
2018-04-16T13:03:39.467Z,5.37
2018-04-16T13:06:06.422Z,6.33
2018-04-16T13:08:33.372Z,5.93
2018-04-16T13:10:59.606Z,5.30
2018-04-16T13:13:25.792Z,5.60
2018-04-16T13:15:52.015Z,4.40
2018-04-16T13:18:18.211Z,3.37
2018-04-16T13:20:44.451Z,2.90
2018-04-16T13:23:10.637Z,3.07
2018-04-16T13:25:37.591Z,3.30
2018-04-16T13:28:05.025Z,2.97
2018-04-16T13:30:31.978Z,2.67
2018-04-16T13:32:58.906Z,3.40
2018-04-16T13:35:25.227Z,3.93
2018-04-16T13:37:51.411Z,3.30
2018-04-16T13:40:18.575Z,3.43
2018-04-16T13:42:44.794Z,3.87
2018-04-16T13:45:11.007Z,4.80
2018-04-16T13:47:37.198Z,4.27
2018-04-16T13:50:03.454Z,3.80
2018-04-16T13:52:30.411Z,3.97
2018-04-16T13:54:56.607Z,4.07
2018-04-16T13:57:22.829Z,3.63
2018-04-16T13:59:49.018Z,4.83
2018-04-16T14:02:15.231Z,5.50
2018-04-16T14:04:41.415Z,5.50
2018-04-16T14:07:07.644Z,5.33
2018-04-16T14:09:33.850Z,6.23
2018-04-16T14:12:00.524Z,9.03
2018-04-16T14:14:27.731Z,4.37
2018-04-16T14:16:53.963Z,4.17
2018-04-16T14:19:20.494Z,3.60
2018-04-16T14:21:46.757Z,5.70
2018-04-16T14:24:12.994Z,5.87
2018-04-16T14:26:39.172Z,7.23
2018-04-16T14:29:05.395Z,6.67
2018-04-16T14:31:31.632Z,4.63
2018-04-16T14:33:57.814Z,4.87
2018-04-16T14:36:24.014Z,4.83
2018-04-16T14:38:50.233Z,5.40
2018-04-16T14:41:16.431Z,4.27
2018-04-16T14:43:42.647Z,5.40
2018-04-16T14:46:08.868Z,4.43
2018-04-16T14:48:35.827Z,27.53
2018-04-16T14:51:02.755Z,33.77
2018-04-16T14:53:29.723Z,8.30
2018-04-16T14:55:55.935Z,7.60
2018-04-16T14:58:22.895Z,6.47
2018-04-16T15:00:49.832Z,7.53
2018-04-16T15:03:16.802Z,9.10
2018-04-16T15:05:43.000Z,8.90
2018-04-16T15:08:09.950Z,9.07
2018-04-16T15:10:36.875Z,9.20
2018-04-16T15:13:03.098Z,8.37
2018-04-16T15:15:30.775Z,7.50
2018-04-16T15:17:56.985Z,11.87
2018-04-16T15:20:23.918Z,12.90
2018-04-16T15:22:50.168Z,12.60
2018-04-16T15:25:16.367Z,12.07
2018-04-16T15:27:42.619Z,14.00
2018-04-16T15:30:08.811Z,13.90
2018-04-16T15:32:35.067Z,13.57
2018-04-16T15:35:01.286Z,15.50
2018-04-16T15:37:27.712Z,17.30
2018-04-16T15:39:53.954Z,15.30
2018-04-16T15:42:20.147Z,15.10
2018-04-16T15:44:46.372Z,13.17
2018-04-16T15:47:12.563Z,14.77
2018-04-16T15:49:40.256Z,14.23
2018-04-16T15:52:07.191Z,14.50
2018-04-16T15:54:34.150Z,15.60
2018-04-16T15:57:01.085Z,14.40
2018-04-16T15:59:28.043Z,14.40
2018-04-16T16:01:54.984Z,13.93
2018-04-16T16:04:22.005Z,15.73
2018-04-16T16:06:48.187Z,15.20
2018-04-16T16:09:14.403Z,14.87
2018-04-16T16:11:40.654Z,16.30
2018-04-16T16:14:06.894Z,14.20
2018-04-16T16:16:33.087Z,15.90
2018-04-16T16:18:59.343Z,13.00
2018-04-16T16:21:25.583Z,14.57
2018-04-16T16:23:51.779Z,13.70
2018-04-16T16:26:17.991Z,13.80
2018-04-16T16:28:44.919Z,14.80
2018-04-16T16:31:11.154Z,14.57
2018-04-16T16:33:38.086Z,13.57
2018-04-16T16:36:04.407Z,13.50
2018-04-16T16:38:30.616Z,14.97
2018-04-16T16:40:56.830Z,14.00
2018-04-16T16:43:23.024Z,13.90
2018-04-16T16:45:50.009Z,15.73
2018-04-16T16:48:16.206Z,16.20
2018-04-16T16:50:43.159Z,16.67
2018-04-16T16:53:09.371Z,14.93
2018-04-16T16:55:35.615Z,14.20
2018-04-16T16:58:01.811Z,15.80
2018-04-16T17:00:28.032Z,16.00
2018-04-16T17:02:54.972Z,17.00
2018-04-16T17:05:21.186Z,16.97
2018-04-16T17:07:47.370Z,17.23
2018-04-16T17:10:14.339Z,17.23
2018-04-16T17:12:40.531Z,17.60
2018-04-16T17:15:07.508Z,17.50
2018-04-16T17:17:33.703Z,18.47
2018-04-16T17:20:00.672Z,17.37
2018-04-16T17:22:26.906Z,17.30
2018-04-16T17:24:53.135Z,17.60
2018-04-16T17:27:19.350Z,18.37
2018-04-16T17:29:46.282Z,21.63
2018-04-16T17:32:12.495Z,21.07
2018-04-16T17:34:38.691Z,19.53
2018-04-16T17:37:04.902Z,19.37
2018-04-16T17:39:31.090Z,22.87
2018-04-16T17:41:58.084Z,22.80
2018-04-16T17:44:24.266Z,21.80
2018-04-16T17:46:50.487Z,22.70
2018-04-16T17:49:16.693Z,22.43
2018-04-16T17:51:42.915Z,22.87
2018-04-16T17:54:09.115Z,20.60
2018-04-16T17:56:35.328Z,21.90
2018-04-16T17:59:02.312Z,22.20
2018-04-16T18:01:28.502Z,22.60
2018-04-16T18:03:55.459Z,25.40
2018-04-16T18:06:22.075Z,24.63
2018-04-16T18:08:49.035Z,24.40
2018-04-16T18:11:15.967Z,22.37
2018-04-16T18:13:42.183Z,24.10
2018-04-16T18:16:09.185Z,24.47
2018-04-16T18:18:35.425Z,29.23
2018-04-16T18:21:01.646Z,27.37
2018-04-16T18:23:27.855Z,26.87
2018-04-16T18:25:54.044Z,28.03
2018-04-16T18:28:20.263Z,27.47
2018-04-16T18:30:46.459Z,27.90
2018-04-16T18:33:12.675Z,27.00
2018-04-16T18:35:38.877Z,25.80
2018-04-16T18:38:05.835Z,24.90
2018-04-16T18:40:32.767Z,26.57
2018-04-16T18:42:59.738Z,25.60
2018-04-16T18:45:25.931Z,26.80
2018-04-16T18:47:53.643Z,24.00
2018-04-16T18:50:19.842Z,25.43
2018-04-16T18:52:46.795Z,24.97
2018-04-16T18:55:13.745Z,26.00
2018-04-16T18:57:39.959Z,24.90
2018-04-16T19:00:06.895Z,24.10
2018-04-16T19:02:33.123Z,24.70
2018-04-16T19:05:00.115Z,23.13
2018-04-16T19:07:26.320Z,21.30
2018-04-16T19:09:52.583Z,20.50
2018-04-16T19:12:18.771Z,19.93
2018-04-16T19:14:45.731Z,19.43
2018-04-16T19:17:11.914Z,19.60
2018-04-16T19:19:38.127Z,18.90
2018-04-16T19:22:04.367Z,18.40
2018-04-16T19:24:30.584Z,18.20
2018-04-16T19:27:02.858Z,18.67
2018-04-16T19:29:29.074Z,18.53
2018-04-16T19:31:55.267Z,19.37
2018-04-16T19:34:28.319Z,22.03
2018-04-16T19:36:54.515Z,22.30
2018-04-16T19:39:20.738Z,23.13
2018-04-16T19:41:53.101Z,24.73
2018-04-16T19:44:19.335Z,24.67
2018-04-16T19:46:45.531Z,23.97
2018-04-16T19:49:18.546Z,22.97
2018-04-16T19:51:44.758Z,21.93
2018-04-16T19:54:11.698Z,23.00
2018-04-16T19:56:44.754Z,19.57
2018-04-16T19:59:10.947Z,18.87
2018-04-16T20:01:37.167Z,20.10
2018-04-16T20:04:03.363Z,19.37
2018-04-16T20:06:30.318Z,19.80
2018-04-16T20:08:57.255Z,20.00
2018-04-16T20:11:23.894Z,20.03
2018-04-16T20:13:50.083Z,19.63
2018-04-16T20:16:16.299Z,17.60
2018-04-16T20:18:42.734Z,16.70
2018-04-16T20:21:09.270Z,16.03
2018-04-16T20:23:35.458Z,15.93
2018-04-16T20:26:02.415Z,15.80
2018-04-16T20:28:29.347Z,17.57
2018-04-16T20:30:56.315Z,17.33
2018-04-16T20:33:22.507Z,17.47
2018-04-16T20:35:48.747Z,16.60
2018-04-16T20:38:15.704Z,16.33
2018-04-16T20:40:42.656Z,14.47
2018-04-16T20:43:09.587Z,12.90
2018-04-16T20:45:36.810Z,13.60
2018-04-16T20:48:03.011Z,14.50
2018-04-16T20:50:29.202Z,13.90
2018-04-16T20:52:56.154Z,13.13
2018-04-16T20:55:23.147Z,14.60
2018-04-16T20:57:49.362Z,12.47
2018-04-16T21:00:15.547Z,12.50
2018-04-16T21:02:42.508Z,12.80
2018-04-16T21:05:09.442Z,13.27
2018-04-16T21:07:36.446Z,13.70
2018-04-16T21:10:02.709Z,15.07
2018-04-16T21:12:28.978Z,13.73
2018-04-16T21:14:55.222Z,14.83
2018-04-16T21:17:21.494Z,13.87
2018-04-16T21:19:48.483Z,14.00
2018-04-16T21:22:15.444Z,13.73
2018-04-16T21:24:41.706Z,14.10
2018-04-16T21:27:07.996Z,14.77
2018-04-16T21:29:34.237Z,14.80
2018-04-16T21:32:01.223Z,15.40
2018-04-16T21:34:27.470Z,13.83
2018-04-16T21:36:55.773Z,15.00
2018-04-16T21:39:22.039Z,15.20
2018-04-16T21:41:48.286Z,15.00
2018-04-16T21:44:14.558Z,14.87
2018-04-16T21:46:40.814Z,14.27
2018-04-16T21:49:07.172Z,17.07
2018-04-16T21:51:34.478Z,15.03
2018-04-16T21:54:00.748Z,15.67
2018-04-16T21:56:27.000Z,15.13
2018-04-16T21:58:54.010Z,15.23
2018-04-16T22:01:20.272Z,15.27
2018-04-16T22:03:47.286Z,15.37
2018-04-16T22:06:13.536Z,15.50
2018-04-16T22:08:39.843Z,16.10
2018-04-16T22:11:06.090Z,15.53
2018-04-16T22:13:32.403Z,14.13
2018-04-16T22:15:58.951Z,15.10
2018-04-16T22:18:25.222Z,13.37
2018-04-16T22:20:52.347Z,14.80
2018-04-16T22:23:18.610Z,15.00
2018-04-16T22:25:45.594Z,13.33
2018-04-16T22:28:11.957Z,13.83
2018-04-16T22:30:38.790Z,14.20
2018-04-16T22:33:05.865Z,15.13
2018-04-16T22:35:35.899Z,13.67
2018-04-16T22:38:02.915Z,15.20
2018-04-16T22:40:29.166Z,14.30
2018-04-16T22:42:56.179Z,14.17
2018-04-16T22:45:22.431Z,12.57
2018-04-16T22:47:48.698Z,15.13
2018-04-16T22:50:14.981Z,15.53
2018-04-16T22:52:41.249Z,13.87
2018-04-16T22:55:08.742Z,14.93
2018-04-16T22:57:35.007Z,14.70
2018-04-16T23:00:01.259Z,15.93
2018-04-16T23:02:28.278Z,15.33
2018-04-16T23:04:54.531Z,15.27
2018-04-16T23:07:21.557Z,15.07
2018-04-16T23:09:47.887Z,16.77
2018-04-16T23:12:14.130Z,16.33
2018-04-16T23:14:41.938Z,15.30
2018-04-16T23:17:08.186Z,16.10
2018-04-16T23:19:34.459Z,17.27
2018-04-16T23:22:00.739Z,20.33
2018-04-16T23:24:27.076Z,19.87
2018-04-16T23:26:53.335Z,19.97
2018-04-16T23:29:20.381Z,21.13
2018-04-16T23:31:47.793Z,22.10
2018-04-16T23:34:14.059Z,19.17
2018-04-16T23:36:40.299Z,21.00
2018-04-16T23:39:06.571Z,22.13
2018-04-16T23:41:33.547Z,22.67
2018-04-16T23:43:59.810Z,22.77
2018-04-16T23:46:26.046Z,22.70
2018-04-16T23:48:52.315Z,23.10
2018-04-16T23:51:18.566Z,25.20
2018-04-16T23:53:44.898Z,24.30
2018-04-16T23:56:11.219Z,26.27
2018-04-16T23:58:38.055Z,27.33
